Time;durP1;ratioP1;P1;durP2;ratioP2;P2;SDS_P1;SDS_P2;PMS_P1;PMS_P2;Temp;Humidity;BMP_temperature;BMP_pressure;BME280_temperature;BME280_humidity;BME280_pressure;Samples;Min_cycle;Max_cycle;Signal;HPM_P1;HPM_P2
2023/04/22 00:02:06;;;;;;;;;;;;;;;6.77;100.00;100867.88;4985323;28;19922;-48
2023/04/22 00:04:32;;;;;;;;;;;;;;;6.75;100.00;100860.16;4990091;28;19918;-47
2023/04/22 00:06:58;;;;;;;;;;;;;;;6.70;100.00;100853.97;4979878;28;19930;-48
2023/04/22 00:09:23;;;;;;;;;;;;;;;6.65;100.00;100847.78;4985703;28;19925;-50
2023/04/22 00:11:49;;;;;;;;;;;;;;;6.65;100.00;100851.19;4986362;28;19914;-47
2023/04/22 00:14:14;;;;;;;;;;;;;;;6.63;100.00;100857.94;4989912;28;19930;-50
2023/04/22 00:16:39;;;;;;;;;;;;;;;6.62;100.00;100845.09;4993575;28;19930;-50
2023/04/22 00:19:04;;;;;;;;;;;;;;;6.60;100.00;100845.00;4991107;28;20009;-48
2023/04/22 00:21:30;;;;;;;;;;;;;;;6.58;100.00;100844.09;5003921;28;20320;-49
2023/04/22 00:23:55;;;;;;;;;;;;;;;6.56;100.00;100840.59;4988866;28;19925;-50
2023/04/22 00:26:20;;;;;;;;;;;;;;;6.54;100.00;100837.09;4989437;28;20297;-50
2023/04/22 00:28:46;;;;;;;;;;;;;;;6.55;100.00;100843.97;4990076;28;19990;-48
2023/04/22 00:31:11;;;;;;;;;;;;;;;6.54;100.00;100846.44;5012607;28;19920;-45
2023/04/22 00:33:36;;;;;;;;;;;;;;;6.53;100.00;100842.13;5007998;28;19922;-46
2023/04/22 00:36:01;;;;;;;;;;;;;;;6.51;100.00;100841.19;4992604;28;19918;-47
2023/04/22 00:38:27;;;;;;;;;;;;;;;6.47;100.00;100849.53;4992450;28;19937;-48
2023/04/22 00:40:52;;;;;;;;;;;;;;;6.43;100.00;100849.41;5008685;28;19930;-46
2023/04/22 00:43:17;;;;;;;;;;;;;;;6.42;100.00;100852.75;5003411;28;19926;-47
2023/04/22 00:45:43;;;;;;;;;;;;;;;6.40;100.00;100849.25;5008235;28;20580;-48
2023/04/22 00:48:08;;;;;;;;;;;;;;;6.40;100.00;100850.94;4984587;28;19969;-48
2023/04/22 00:50:34;;;;;;;;;;;;;;;6.38;100.00;100852.56;4986450;28;20296;-46
2023/04/22 00:52:59;;;;;;;;;;;;;;;6.41;100.00;100855.22;4983370;28;19922;-48
2023/04/22 00:55:25;;;;;;;;;;;;;;;6.42;100.00;100847.63;5080931;28;19970;-47
2023/04/22 00:57:50;;;;;;;;;;;;;;;6.43;100.00;100844.31;4988539;28;20281;-47
2023/04/22 01:00:16;;;;;;;;;;;;;;;6.45;100.00;100849.47;4990714;28;19937;-51
2023/04/22 01:02:41;;;;;;;;;;;;;;;6.45;100.00;100847.78;4991381;28;19917;-51
2023/04/22 01:05:09;;;;;;;;;;;;;;;6.48;100.00;100841.06;4994771;28;19925;-48
2023/04/22 01:07:35;;;;;;;;;;;;;;;6.47;100.00;100849.53;4989619;28;19917;-49
2023/04/22 01:10:00;;;;;;;;;;;;;;;6.44;100.00;100848.59;4987647;28;19919;-47
2023/04/22 01:12:26;;;;;;;;;;;;;;;6.45;100.00;100836.69;4993818;28;19926;-51
2023/04/22 01:14:51;;;;;;;;;;;;;;;6.45;100.00;100831.59;4986441;28;19957;-49
2023/04/22 01:17:18;;;;;;;;;;;;;;;6.45;100.00;100832.47;4996381;28;19972;-46
2023/04/22 01:19:43;;;;;;;;;;;;;;;6.48;100.00;100838.50;4990478;28;19967;-46
2023/04/22 01:22:10;;;;;;;;;;;;;;;6.47;100.00;100832.50;5003315;28;19965;-47
2023/04/22 01:24:35;;;;;;;;;;;;;;;6.47;100.00;100829.09;4985536;28;19930;-47
2023/04/22 01:27:01;;;;;;;;;;;;;;;6.48;100.00;100833.38;4997205;28;19922;-46
2023/04/22 01:29:26;;;;;;;;;;;;;;;6.50;100.00;100831.78;5000841;28;19936;-46
2023/04/22 01:31:52;;;;;;;;;;;;;;;6.52;100.00;100827.63;5018085;28;19920;-47
2023/04/22 01:34:17;;;;;;;;;;;;;;;6.54;100.00;100831.09;4995544;28;19941;-48
2023/04/22 01:36:43;;;;;;;;;;;;;;;6.53;100.00;100835.34;4994677;28;20391;-49
2023/04/22 01:39:08;;;;;;;;;;;;;;;6.54;100.00;100831.97;4996710;28;19924;-48
2023/04/22 01:41:34;;;;;;;;;;;;;;;6.56;100.00;100834.63;5002864;28;19920;-46
2023/04/22 01:44:01;;;;;;;;;;;;;;;6.56;100.00;100826.97;4998017;28;19922;-46
2023/04/22 01:46:27;;;;;;;;;;;;;;;6.55;100.00;100827.72;5010672;28;19918;-47
2023/04/22 01:48:52;;;;;;;;;;;;;;;6.54;100.00;100828.53;4988532;28;20024;-47
2023/04/22 01:51:22;;;;;;;;;;;;;;;6.53;100.00;100829.34;5003391;28;20003;-48
2023/04/22 01:53:48;;;;;;;;;;;;;;;6.50;100.00;100827.56;4991179;28;20565;-47
2023/04/22 01:56:13;;;;;;;;;;;;;;;6.46;100.00;100825.66;4990151;28;19925;-47
2023/04/22 01:58:39;;;;;;;;;;;;;;;6.43;100.00;100822.97;4987072;28;20047;-47
2023/04/22 02:01:05;;;;;;;;;;;;;;;6.40;100.00;100826.28;4985580;28;19918;-48
2023/04/22 02:03:30;;;;;;;;;;;;;;;6.41;100.00;100819.47;5006440;28;19968;-47
2023/04/22 02:05:55;;;;;;;;;;;;;;;6.38;100.00;100824.47;4987508;28;19922;-47
2023/04/22 02:08:21;;;;;;;;;;;;;;;6.38;100.00;100819.34;4986467;28;19922;-42
2023/04/22 02:10:46;;;;;;;;;;;;;;;6.37;100.00;100817.59;4983602;28;19944;-44
2023/04/22 02:13:11;;;;;;;;;;;;;;;6.37;100.00;100818.50;4986930;28;19973;-44
2023/04/22 02:15:38;;;;;;;;;;;;;;;6.36;100.00;100819.25;4990594;28;19917;-44
2023/04/22 02:18:03;;;;;;;;;;;;;;;6.34;100.00;100812.34;4992166;28;19926;-50
2023/04/22 02:20:28;;;;;;;;;;;;;;;6.34;100.00;100820.88;4997915;28;19930;-51
2023/04/22 02:22:54;;;;;;;;;;;;;;;6.35;100.00;100816.66;4998011;28;19925;-47
2023/04/22 02:25:19;;;;;;;;;;;;;;;6.34;100.00;100813.22;4995119;28;19921;-47
2023/04/22 02:27:45;;;;;;;;;;;;;;;6.33;100.00;100810.63;5081380;27;19922;-46
2023/04/22 02:30:10;;;;;;;;;;;;;;;6.34;100.00;100810.66;5001753;28;20374;-48
2023/04/22 02:32:37;;;;;;;;;;;;;;;6.33;100.00;100801.28;4994346;28;20064;-46
2023/04/22 02:35:03;;;;;;;;;;;;;;;6.34;100.00;100810.66;5003438;28;19961;-49
2023/04/22 02:37:28;;;;;;;;;;;;;;;6.33;100.00;100801.28;4993230;28;20394;-47
2023/04/22 02:39:54;;;;;;;;;;;;;;;6.35;100.00;100802.19;4999262;28;19928;-47
2023/04/22 02:42:19;;;;;;;;;;;;;;;6.35;100.00;100807.31;5002386;28;19922;-42
2023/04/22 02:44:44;;;;;;;;;;;;;;;6.34;100.00;100805.56;4994837;28;19973;-43
2023/04/22 02:47:09;;;;;;;;;;;;;;;6.34;100.00;100802.16;4992174;28;19925;-43
2023/04/22 02:49:35;;;;;;;;;;;;;;;6.36;100.00;100797.97;5003407;28;19972;-43
2023/04/22 02:52:00;;;;;;;;;;;;;;;6.38;100.00;100793.81;4989065;28;19918;-43
2023/04/22 02:54:25;;;;;;;;;;;;;;;6.41;100.00;100799.03;4985561;28;19929;-44
2023/04/22 02:56:50;;;;;;;;;;;;;;;6.39;100.00;100791.31;5001304;28;19925;-42
2023/04/22 02:59:16;;;;;;;;;;;;;;;6.37;100.00;100785.28;4986773;28;19914;-44
2023/04/22 03:01:41;;;;;;;;;;;;;;;6.37;100.00;100789.50;4986303;28;20398;-43
2023/04/22 03:04:06;;;;;;;;;;;;;;;6.37;100.00;100787.84;4977364;28;19921;-43
2023/04/22 03:06:31;;;;;;;;;;;;;;;6.38;100.00;100783.59;4975717;28;19970;-43
2023/04/22 03:08:57;;;;;;;;;;;;;;;6.38;100.00;100781.91;4987587;28;19922;-43
2023/04/22 03:11:22;;;;;;;;;;;;;;;6.39;100.00;100778.56;4980138;28;19925;-43
2023/04/22 03:13:47;;;;;;;;;;;;;;;6.40;100.00;100779.44;4987411;28;19929;-42
2023/04/22 03:16:12;;;;;;;;;;;;;;;6.38;100.00;100778.50;4980288;28;19926;-43
2023/04/22 03:18:38;;;;;;;;;;;;;;;6.37;100.00;100784.38;4985095;28;20330;-45
2023/04/22 03:21:03;;;;;;;;;;;;;;;6.37;100.00;100785.28;4986376;28;19925;-44
2023/04/22 03:23:28;;;;;;;;;;;;;;;6.37;100.00;100781.81;4996921;28;19917;-43
2023/04/22 03:25:53;;;;;;;;;;;;;;;6.36;100.00;100777.53;4989298;28;20330;-44
2023/04/22 03:28:19;;;;;;;;;;;;;;;6.35;100.00;100779.22;4994613;28;19937;-43
2023/04/22 03:30:44;;;;;;;;;;;;;;;6.35;100.00;100771.56;4994332;28;19948;-43
2023/04/22 03:33:10;;;;;;;;;;;;;;;6.38;100.00;100771.69;5016028;28;19922;-43
2023/04/22 03:35:35;;;;;;;;;;;;;;;6.40;100.00;100764.97;4989124;28;19918;-46
2023/04/22 03:38:00;;;;;;;;;;;;;;;6.44;100.00;100769.41;4992604;28;19922;-45
2023/04/22 03:40:26;;;;;;;;;;;;;;;6.45;100.00;100767.72;4989396;28;19922;-44
2023/04/22 03:42:51;;;;;;;;;;;;;;;6.44;100.00;100759.19;4986274;28;20388;-44
2023/04/22 03:45:16;;;;;;;;;;;;;;;6.46;100.00;100761.81;4984994;28;20304;-43
2023/04/22 03:47:41;;;;;;;;;;;;;;;6.50;100.00;100756.03;4984841;28;19926;-42
2023/04/22 03:50:07;;;;;;;;;;;;;;;6.52;100.00;100756.97;4988377;28;19975;-43
2023/04/22 03:52:32;;;;;;;;;;;;;;;6.53;100.00;100755.28;5017541;28;19930;-44
2023/04/22 03:54:57;;;;;;;;;;;;;;;6.53;100.00;100758.69;4991764;28;19922;-44
2023/04/22 03:57:22;;;;;;;;;;;;;;;6.55;100.00;100745.97;4975896;28;19952;-42
2023/04/22 03:59:48;;;;;;;;;;;;;;;6.52;100.00;100745.88;4989440;28;19926;-43
2023/04/22 04:02:13;;;;;;;;;;;;;;;6.51;100.00;100749.25;4981787;28;19930;-42
2023/04/22 04:04:38;;;;;;;;;;;;;;;6.49;100.00;100745.72;4998021;28;20373;-43
2023/04/22 04:07:03;;;;;;;;;;;;;;;6.47;100.00;100745.66;4985759;28;19930;-43
2023/04/22 04:09:29;;;;;;;;;;;;;;;6.47;100.00;100738.00;4988010;28;20387;-44
2023/04/22 04:11:55;;;;;;;;;;;;;;;6.46;100.00;100728.59;4984922;28;19918;-44
2023/04/22 04:14:20;;;;;;;;;;;;;;;6.47;100.00;100729.47;4992043;28;20341;-44
2023/04/22 04:16:45;;;;;;;;;;;;;;;6.46;100.00;100731.16;4984283;28;19969;-44
2023/04/22 04:19:11;;;;;;;;;;;;;;;6.45;100.00;100735.41;4977243;28;19979;-44
2023/04/22 04:21:36;;;;;;;;;;;;;;;6.44;100.00;100728.53;4985217;28;19925;-50
2023/04/22 04:24:02;;;;;;;;;;;;;;;6.44;100.00;100735.34;4991318;28;19968;-49
2023/04/22 04:26:27;;;;;;;;;;;;;;;6.43;100.00;100734.47;4987354;28;19921;-43
2023/04/22 04:28:54;;;;;;;;;;;;;;;6.44;100.00;100740.44;4993438;28;19930;-44
2023/04/22 04:31:20;;;;;;;;;;;;;;;6.44;100.00;100735.34;5000623;28;19944;-44
2023/04/22 04:33:48;;;;;;;;;;;;;;;6.44;100.00;100720.00;5010521;28;19925;-45
2023/04/22 04:36:14;;;;;;;;;;;;;;;6.44;100.00;100717.47;4980081;28;20094;-46
2023/04/22 04:38:39;;;;;;;;;;;;;;;6.43;100.00;100726.81;4980443;28;19922;-46
2023/04/22 04:41:04;;;;;;;;;;;;;;;6.43;100.00;100724.25;4984561;28;19925;-44
2023/04/22 04:43:30;;;;;;;;;;;;;;;6.41;100.00;100714.75;4985838;28;20420;-47
2023/04/22 04:45:56;;;;;;;;;;;;;;;6.40;100.00;100726.66;4992596;28;20303;-47
2023/04/22 04:48:23;;;;;;;;;;;;;;;6.40;100.00;100730.91;4981725;28;19927;-47
2023/04/22 04:50:52;;;;;;;;;;;;;;;6.41;100.00;100727.53;5024960;28;20341;-44
2023/04/22 04:53:18;;;;;;;;;;;;;;;6.42;100.00;100730.13;4984675;28;20814;-45
2023/04/22 04:55:44;;;;;;;;;;;;;;;6.44;100.00;100730.22;4986598;28;19953;-46
2023/04/22 04:58:09;;;;;;;;;;;;;;;6.44;100.00;100727.69;4986239;28;20002;-44
2023/04/22 05:00:34;;;;;;;;;;;;;;;6.44;100.00;100732.78;4985966;28;19922;-45
2023/04/22 05:03:00;;;;;;;;;;;;;;;6.46;100.00;100731.16;4993291;28;20013;-43
2023/04/22 05:05:25;;;;;;;;;;;;;;;6.48;100.00;100726.97;4980635;28;19925;-45
2023/04/22 05:07:52;;;;;;;;;;;;;;;6.52;100.00;100723.75;4985388;28;19930;-48
2023/04/22 05:10:17;;;;;;;;;;;;;;;6.55;100.00;100725.53;4979600;28;20352;-47
2023/04/22 05:12:45;;;;;;;;;;;;;;;6.60;100.00;100734.28;4989072;28;19973;-43
2023/04/22 05:15:10;;;;;;;;;;;;;;;6.66;100.00;100743.06;4988869;28;19933;-44
2023/04/22 05:17:35;;;;;;;;;;;;;;;6.68;100.00;100738.94;4990802;28;20036;-43
2023/04/22 05:20:01;;;;;;;;;;;;;;;6.73;100.00;100744.19;4989160;28;19918;-44
2023/04/22 05:22:26;;;;;;;;;;;;;;;6.76;100.00;100736.69;4981902;28;19945;-46
2023/04/22 05:24:51;;;;;;;;;;;;;;;6.78;100.00;100729.06;4981166;28;19950;-45
2023/04/22 05:27:17;;;;;;;;;;;;;;;6.81;100.00;100729.22;4986305;28;19930;-44
2023/04/22 05:29:42;;;;;;;;;;;;;;;6.82;100.00;100730.94;4988057;28;19967;-44
2023/04/22 05:32:07;;;;;;;;;;;;;;;6.84;100.00;100730.19;4988557;28;19934;-45
2023/04/22 05:34:34;;;;;;;;;;;;;;;6.89;100.00;100727.81;4993022;28;19972;-47
2023/04/22 05:36:59;;;;;;;;;;;;;;;6.93;100.00;100730.56;4993572;28;19910;-44
2023/04/22 05:39:25;;;;;;;;;;;;;;;6.97;100.00;100736.66;4989744;28;19925;-45
2023/04/22 05:41:50;;;;;;;;;;;;;;;7.05;100.00;100729.31;4997707;28;19933;-45
2023/04/22 05:44:16;;;;;;;;;;;;;;;7.13;100.00;100730.50;4994336;28;19951;-45
2023/04/22 05:46:41;;;;;;;;;;;;;;;7.20;100.00;100724.81;4993741;28;20008;-46
2023/04/22 05:49:06;;;;;;;;;;;;;;;7.30;100.00;100726.91;4989573;28;19934;-45
2023/04/22 05:51:32;;;;;;;;;;;;;;;7.42;100.00;100732.50;4990342;28;19937;-47
2023/04/22 05:53:57;;;;;;;;;;;;;;;7.55;100.00;100728.72;4986172;28;19930;-44
2023/04/22 05:56:22;;;;;;;;;;;;;;;7.63;100.00;100734.13;4990086;28;20020;-44
2023/04/22 05:58:47;;;;;;;;;;;;;;;7.66;100.00;100724.03;4989129;28;20277;-44
2023/04/22 06:01:13;;;;;;;;;;;;;;;7.68;100.00;100723.25;4988919;28;19941;-44
2023/04/22 06:03:38;;;;;;;;;;;;;;;7.73;100.00;100713.19;4992351;28;19953;-46
2023/04/22 06:06:03;;;;;;;;;;;;;;;7.80;100.00;100721.16;4985188;28;19928;-47
2023/04/22 06:08:29;;;;;;;;;;;;;;;7.91;100.00;100711.31;4983740;28;19929;-43
2023/04/22 06:10:55;;;;;;;;;;;;;;;8.09;100.00;100716.22;4996943;28;19966;-46
2023/04/22 06:13:20;;;;;;;;;;;;;;;8.30;100.00;100716.09;4999169;28;19934;-48
2023/04/22 06:15:45;;;;;;;;;;;;;;;8.59;100.00;100712.00;4989327;28;19922;-48
2023/04/22 06:18:10;;;;;;;;;;;;;;;8.92;100.00;100709.69;4993385;28;19922;-48
2023/04/22 06:20:36;;;;;;;;;;;;;;;9.27;100.00;100709.91;4985670;28;20411;-50
2023/04/22 06:23:01;;;;;;;;;;;;;;;9.52;100.00;100696.97;4989759;28;19922;-49
2023/04/22 06:25:26;;;;;;;;;;;;;;;9.79;100.00;100707.19;4984384;28;19928;-47
2023/04/22 06:27:52;;;;;;;;;;;;;;;10.04;100.00;100702.75;4988980;28;20284;-48
2023/04/22 06:30:17;;;;;;;;;;;;;;;10.37;100.00;100697.66;4989135;28;19925;-48
2023/04/22 06:32:42;;;;;;;;;;;;;;;10.73;100.00;100690.00;5005984;28;20284;-49
2023/04/22 06:35:08;;;;;;;;;;;;;;;11.13;100.00;100690.97;4998593;28;19918;-49
2023/04/22 06:37:33;;;;;;;;;;;;;;;11.48;100.00;100696.91;4997960;28;19931;-50
2023/04/22 06:39:58;;;;;;;;;;;;;;;11.96;100.00;100691.94;4987325;28;20442;-49
2023/04/22 06:42:23;;;;;;;;;;;;;;;12.42;100.00;100692.78;4991039;28;20006;-45
2023/04/22 06:44:49;;;;;;;;;;;;;;;12.64;100.00;100691.44;4996750;28;20345;-44
2023/04/22 06:47:14;;;;;;;;;;;;;;;12.91;100.00;100695.31;4987299;28;19922;-46
2023/04/22 06:49:40;;;;;;;;;;;;;;;13.14;100.00;100694.81;4997598;28;20377;-45
2023/04/22 06:52:05;;;;;;;;;;;;;;;13.33;99.63;100689.94;4996291;28;20012;-46
2023/04/22 06:54:30;;;;;;;;;;;;;;;13.52;95.49;100684.19;5009106;28;19925;-44
2023/04/22 06:56:56;;;;;;;;;;;;;;;13.79;96.71;100673.34;4982674;28;19906;-48
2023/04/22 06:59:21;;;;;;;;;;;;;;;13.95;96.47;100670.09;4984155;28;20373;-43
2023/04/22 07:01:47;;;;;;;;;;;;;;;14.00;95.04;100671.84;4978181;28;19918;-44
2023/04/22 07:04:12;;;;;;;;;;;;;;;14.04;96.95;100678.78;4982593;28;19947;-43
2023/04/22 07:06:37;;;;;;;;;;;;;;;13.95;93.91;100688.19;4978930;28;19929;-44
2023/04/22 07:09:02;;;;;;;;;;;;;;;14.05;95.47;100685.69;4991127;28;20024;-44
2023/04/22 07:11:30;;;;;;;;;;;;;;;14.25;95.73;100684.19;4982911;28;20304;-45
2023/04/22 07:13:55;;;;;;;;;;;;;;;14.45;94.30;100685.25;4979339;28;19971;-43
2023/04/22 07:16:20;;;;;;;;;;;;;;;14.51;93.49;100683.63;4980915;28;19921;-45
2023/04/22 07:18:45;;;;;;;;;;;;;;;14.45;92.03;100677.50;4978697;28;19969;-45
2023/04/22 07:21:11;;;;;;;;;;;;;;;14.29;93.06;100675.59;4974570;28;20419;-45
2023/04/22 07:23:36;;;;;;;;;;;;;;;13.97;91.36;100671.81;4979407;28;21021;-44
2023/04/22 07:26:01;;;;;;;;;;;;;;;13.70;91.90;100675.81;4979568;28;19922;-45
2023/04/22 07:28:26;;;;;;;;;;;;;;;13.50;93.47;100672.97;4980138;28;20017;-44
2023/04/22 07:30:52;;;;;;;;;;;;;;;13.32;93.67;100676.19;4979965;28;20001;-44
2023/04/22 07:33:18;;;;;;;;;;;;;;;13.25;94.07;100674.38;4979981;28;19926;-44
2023/04/22 07:35:43;;;;;;;;;;;;;;;13.29;94.27;100680.44;4977404;28;19926;-43
2023/04/22 07:38:08;;;;;;;;;;;;;;;13.37;94.09;100684.00;5077922;28;19944;-45
2023/04/22 07:40:33;;;;;;;;;;;;;;;13.40;94.22;100684.03;4976162;28;19966;-44
2023/04/22 07:43:00;;;;;;;;;;;;;;;13.51;93.93;100686.75;4987658;28;19971;-43
2023/04/22 07:45:25;;;;;;;;;;;;;;;13.64;93.07;100680.91;4979208;28;19925;-44
2023/04/22 07:47:50;;;;;;;;;;;;;;;13.83;93.65;100681.97;4986667;28;19920;-45
2023/04/22 07:50:15;;;;;;;;;;;;;;;14.07;92.84;100686.56;4972999;28;20352;-44
2023/04/22 07:52:41;;;;;;;;;;;;;;;14.29;91.92;100679.91;4978625;28;19929;-44
2023/04/22 07:55:06;;;;;;;;;;;;;;;14.44;89.83;100683.53;4979070;28;20300;-45
2023/04/22 07:57:37;;;;;;;;;;;;;;;14.48;90.95;100669.78;4977482;28;19926;-45
2023/04/22 08:00:02;;;;;;;;;;;;;;;14.58;89.62;100652.63;4982392;28;20375;-44
2023/04/22 08:02:27;;;;;;;;;;;;;;;14.64;90.05;100654.41;4970079;28;19925;-44
2023/04/22 08:04:53;;;;;;;;;;;;;;;14.73;89.27;100654.47;4970935;28;20470;-42
2023/04/22 08:07:18;;;;;;;;;;;;;;;14.83;88.24;100648.50;4980077;28;19979;-44
2023/04/22 08:09:43;;;;;;;;;;;;;;;15.00;88.18;100659.84;4976924;28;19944;-43
2023/04/22 08:12:08;;;;;;;;;;;;;;;15.03;88.00;100649.50;4977613;28;19926;-43
2023/04/22 08:14:34;;;;;;;;;;;;;;;15.07;87.80;100649.53;4981671;28;19933;-43
2023/04/22 08:16:59;;;;;;;;;;;;;;;15.13;87.41;100636.63;4979629;28;19982;-43
2023/04/22 08:19:24;;;;;;;;;;;;;;;15.17;87.09;100639.25;4981209;28;19929;-43
2023/04/22 08:21:50;;;;;;;;;;;;;;;15.31;87.43;100639.31;4977343;28;20313;-43
2023/04/22 08:24:15;;;;;;;;;;;;;;;15.33;87.19;100637.59;4976719;28;19921;-44
2023/04/22 08:26:41;;;;;;;;;;;;;;;15.36;87.17;100637.63;4976151;28;20506;-44
2023/04/22 08:29:06;;;;;;;;;;;;;;;15.38;86.76;100638.47;4972643;28;19926;-46
2023/04/22 08:31:32;;;;;;;;;;;;;;;15.42;84.91;100636.78;4974275;28;19922;-45
2023/04/22 08:33:57;;;;;;;;;;;;;;;15.36;85.26;100636.75;4994902;28;19929;-45
2023/04/22 08:36:24;;;;;;;;;;;;;;;15.35;84.82;100635.88;4979372;28;19949;-44
2023/04/22 08:38:50;;;;;;;;;;;;;;;15.40;85.90;100633.28;4972519;28;19929;-45
2023/04/22 08:41:17;;;;;;;;;;;;;;;15.45;85.64;100626.41;4979805;28;19922;-43
2023/04/22 08:43:44;;;;;;;;;;;;;;;15.45;84.13;100635.06;4980054;28;19924;-43
2023/04/22 08:46:09;;;;;;;;;;;;;;;15.51;85.67;100622.13;4982283;28;19971;-43
2023/04/22 08:48:35;;;;;;;;;;;;;;;15.57;85.05;100616.09;4976808;28;19933;-44
2023/04/22 08:51:01;;;;;;;;;;;;;;;15.60;81.35;100603.16;4980912;28;19922;-44
2023/04/22 08:53:26;;;;;;;;;;;;;;;15.63;83.44;100594.56;4984067;28;19986;-42
2023/04/22 08:55:54;;;;;;;;;;;;;;;15.71;81.87;100605.81;4982718;28;19929;-42
2023/04/22 08:58:20;;;;;;;;;;;;;;;15.61;82.29;100597.13;4980911;28;19975;-44
2023/04/22 09:00:47;;;;;;;;;;;;;;;15.62;83.37;100590.22;4982772;28;19930;-46
2023/04/22 09:03:12;;;;;;;;;;;;;;;15.73;81.92;100586.81;4988210;28;20629;-44
2023/04/22 09:05:39;;;;;;;;;;;;;;;15.90;82.57;100584.28;4980700;28;19926;-44
2023/04/22 09:08:06;;;;;;;;;;;;;;;16.05;81.09;100593.78;4989643;28;19958;-46
2023/04/22 09:10:32;;;;;;;;;;;;;;;16.15;80.74;100586.91;4986958;28;19976;-44
2023/04/22 09:12:57;;;;;;;;;;;;;;;16.22;81.22;100580.84;4980976;28;20334;-46
2023/04/22 09:15:23;;;;;;;;;;;;;;;16.30;80.11;100581.69;4988064;28;19925;-46
2023/04/22 09:17:50;;;;;;;;;;;;;;;16.44;80.07;100584.28;4981660;28;20391;-45
2023/04/22 09:20:16;;;;;;;;;;;;;;;16.49;80.84;100577.38;4979344;28;19961;-45
2023/04/22 09:22:45;;;;;;;;;;;;;;;16.48;78.60;100586.88;4982417;28;19929;-47
2023/04/22 09:25:14;;;;;;;;;;;;;;;16.49;79.09;100578.22;4986965;28;19983;-44
2023/04/22 09:27:40;;;;;;;;;;;;;;;16.49;80.20;100580.81;4978547;28;20293;-47
2023/04/22 09:30:07;;;;;;;;;;;;;;;16.49;78.86;100585.16;4980455;28;19996;-49
2023/04/22 09:32:32;;;;;;;;;;;;;;;16.49;79.93;100583.41;4975428;28;19918;-48
2023/04/22 09:34:57;;;;;;;;;;;;;;;16.51;77.07;100579.13;4981756;28;19962;-50
2023/04/22 09:37:25;;;;;;;;;;;;;;;16.55;77.80;100578.22;4980841;28;19929;-48
2023/04/22 09:39:51;;;;;;;;;;;;;;;16.58;77.63;100578.22;4978696;28;19922;-47
2023/04/22 09:42:17;;;;;;;;;;;;;;;16.60;77.48;100571.31;4984466;28;19995;-44
2023/04/22 09:44:44;;;;;;;;;;;;;;;16.69;78.47;100566.97;4986492;28;20673;-43
2023/04/22 09:47:10;;;;;;;;;;;;;;;16.84;77.01;100565.22;4985323;28;19997;-44
2023/04/22 09:49:37;;;;;;;;;;;;;;;16.94;77.15;100570.41;4985527;28;19975;-43
2023/04/22 09:52:03;;;;;;;;;;;;;;;17.01;75.98;100566.94;4981512;28;19922;-44
2023/04/22 09:54:28;;;;;;;;;;;;;;;17.14;76.73;100579.88;4975701;28;19932;-44
2023/04/22 09:56:53;;;;;;;;;;;;;;;17.23;75.70;100584.19;4984715;28;19930;-43
2023/04/22 09:59:22;;;;;;;;;;;;;;;17.35;74.29;100578.94;4987784;28;20388;-45
2023/04/22 10:01:48;;;;;;;;;;;;;;;17.36;73.52;100580.66;4979054;28;19918;-44
2023/04/22 10:04:15;;;;;;;;;;;;;;;17.52;73.97;100575.38;4979233;28;20684;-44
2023/04/22 10:06:41;;;;;;;;;;;;;;;17.71;70.44;100577.00;4982056;28;19925;-44
2023/04/22 10:09:06;;;;;;;;;;;;;;;17.73;70.85;100566.66;4983982;28;19926;-45
2023/04/22 10:11:32;;;;;;;;;;;;;;;17.81;71.52;100572.66;4981002;28;20383;-44
2023/04/22 10:13:59;;;;;;;;;;;;;;;18.08;72.38;100571.59;4982866;28;19965;-44
2023/04/22 10:16:26;;;;;;;;;;;;;;;18.20;72.96;100585.41;4982954;28;19936;-45
2023/04/22 10:18:53;;;;;;;;;;;;;;;18.28;70.59;100580.13;4987050;28;19917;-44
2023/04/22 10:21:20;;;;;;;;;;;;;;;18.41;71.98;100563.53;4982230;28;19917;-44
2023/04/22 10:23:46;;;;;;;;;;;;;;;18.62;72.61;100583.28;4979618;28;19926;-47
2023/04/22 10:26:12;;;;;;;;;;;;;;;18.82;71.62;100593.56;4977494;28;19921;-45
2023/04/22 10:28:42;;;;;;;;;;;;;;;18.91;69.06;100588.25;4978226;28;19937;-44
2023/04/22 10:31:18;;;;;;;;;;;;;;;18.92;68.48;100594.31;4980733;28;19917;-45
2023/04/22 10:33:44;;;;;;;;;;;;;;;18.85;69.74;100597.88;4979153;28;19978;-50
2023/04/22 10:36:14;;;;;;;;;;;;;;;18.87;67.00;100588.28;4975582;28;20331;-44
2023/04/22 10:38:49;;;;;;;;;;;;;;;18.86;65.41;100594.38;4976126;28;19933;-43
2023/04/22 10:41:14;;;;;;;;;;;;;;;18.75;66.57;100584.09;4987515;28;19921;-44
2023/04/22 10:43:44;;;;;;;;;;;;;;;18.80;65.97;100589.22;4982492;28;19926;-43
2023/04/22 10:46:27;;;;;;;;;;;;;;;18.67;68.14;100576.31;4980354;28;19925;-44
2023/04/22 10:48:55;;;;;;;;;;;;;;;18.68;67.45;100565.03;4983803;28;19926;-45
2023/04/22 10:51:39;;;;;;;;;;;;;;;18.78;68.92;100565.81;4982728;28;20432;-44
2023/04/22 10:54:04;;;;;;;;;;;;;;;18.81;65.68;100567.50;4982336;28;19925;-45
2023/04/22 10:56:29;;;;;;;;;;;;;;;18.74;68.34;100559.75;4985143;28;19967;-50
2023/04/22 10:58:55;;;;;;;;;;;;;;;18.79;66.84;100571.88;4978838;28;19933;-50
2023/04/22 11:01:20;;;;;;;;;;;;;;;18.79;67.34;100574.50;4978566;28;20013;-49
2023/04/22 11:03:46;;;;;;;;;;;;;;;18.72;66.92;100582.38;4976593;28;19922;-52
2023/04/22 11:06:12;;;;;;;;;;;;;;;18.52;67.89;100584.28;4977716;28;20392;-51
2023/04/22 11:08:42;;;;;;;;;;;;;;;18.24;65.44;100586.22;4974733;28;19918;-55
2023/04/22 11:11:08;;;;;;;;;;;;;;;17.99;66.63;100590.75;4978992;28;19992;-54
2023/04/22 11:13:34;;;;;;;;;;;;;;;17.83;67.78;100594.31;4980286;28;19922;-54
2023/04/22 11:15:59;;;;;;;;;;;;;;;17.57;68.20;100584.88;4992410;28;20063;-56
2023/04/22 11:18:25;;;;;;;;;;;;;;;17.40;69.38;100586.69;4993234;28;19949;-54
2023/04/22 11:20:51;;;;;;;;;;;;;;;17.24;69.31;100585.91;4984034;28;19924;-54
2023/04/22 11:23:26;;;;;;;;;;;;;;;17.08;70.28;100595.47;4979726;28;20056;-52
2023/04/22 11:26:02;;;;;;;;;;;;;;;16.89;73.26;100589.47;4977990;28;19918;-49
2023/04/22 11:28:28;;;;;;;;;;;;;;;16.76;77.25;100594.69;4976689;28;19926;-51
2023/04/22 11:31:03;;;;;;;;;;;;;;;16.58;77.13;100588.63;4984283;28;19929;-52
2023/04/22 11:33:30;;;;;;;;;;;;;;;16.44;76.76;100586.88;4982811;28;19922;-51
2023/04/22 11:35:57;;;;;;;;;;;;;;;16.23;79.18;100580.84;4977586;28;19918;-49
2023/04/22 11:38:22;;;;;;;;;;;;;;;16.06;78.99;100588.59;4980800;28;20341;-53
2023/04/22 11:40:47;;;;;;;;;;;;;;;15.92;80.24;100592.91;4979829;28;20384;-51
2023/04/22 11:43:13;;;;;;;;;;;;;;;15.82;81.05;100592.00;4979371;28;19953;-54
2023/04/22 11:45:39;;;;;;;;;;;;;;;15.77;81.22;100592.84;5008913;28;19943;-55
2023/04/22 11:48:06;;;;;;;;;;;;;;;15.67;83.51;100594.56;4984897;28;19933;-53
2023/04/22 11:50:32;;;;;;;;;;;;;;;15.61;81.68;100594.53;4986640;28;19920;-53
2023/04/22 11:53:01;;;;;;;;;;;;;;;15.57;82.79;100601.41;4974583;28;20220;-53
2023/04/22 11:55:29;;;;;;;;;;;;;;;15.55;83.59;100597.09;4977462;28;19930;-53
2023/04/22 11:58:09;;;;;;;;;;;;;;;15.51;82.83;100591.03;4978830;28;19984;-53
2023/04/22 12:00:36;;;;;;;;;;;;;;;15.53;84.71;100596.19;4980335;28;19922;-53
2023/04/22 12:03:02;;;;;;;;;;;;;;;15.55;84.38;100591.91;4978982;28;19914;-53
2023/04/22 12:05:38;;;;;;;;;;;;;;;15.52;83.57;100599.66;4978024;28;19929;-51
2023/04/22 12:08:11;;;;;;;;;;;;;;;15.50;84.80;100596.22;4976523;28;19921;-53
2023/04/22 12:10:44;;;;;;;;;;;;;;;15.53;86.20;100603.97;4981016;28;20044;-54
2023/04/22 12:13:16;;;;;;;;;;;;;;;15.57;85.06;100597.97;4981357;28;19925;-53
2023/04/22 12:15:42;;;;;;;;;;;;;;;15.60;85.75;100597.13;4984612;28;19929;-53
2023/04/22 12:18:07;;;;;;;;;;;;;;;15.66;82.70;100598.03;4981076;28;20309;-54
2023/04/22 12:20:36;;;;;;;;;;;;;;;15.69;83.01;100598.03;4984563;28;19945;-56
2023/04/22 12:23:02;;;;;;;;;;;;;;;15.64;87.60;100593.69;4979500;28;19925;-53
2023/04/22 12:25:28;;;;;;;;;;;;;;;15.68;84.25;100598.03;4974834;28;19919;-53
2023/04/22 12:27:54;;;;;;;;;;;;;;;15.69;85.63;100594.56;4978107;28;19939;-54
2023/04/22 12:30:19;;;;;;;;;;;;;;;15.65;85.19;100605.78;4975804;28;19922;-51